createdAt,value
2023-05-25T00:00:19.538Z,11.38
2023-05-25T00:02:46.611Z,11.35
2023-05-25T00:05:14.423Z,11.36
2023-05-25T00:07:44.240Z,11.33
2023-05-25T00:10:12.375Z,11.33
2023-05-25T00:12:39.144Z,11.35
2023-05-25T00:15:07.085Z,11.30
2023-05-25T00:17:33.970Z,11.27
2023-05-25T00:20:09.504Z,11.24
2023-05-25T00:22:37.338Z,11.17
2023-05-25T00:25:05.140Z,11.22
2023-05-25T00:27:31.980Z,11.21
2023-05-25T00:29:59.223Z,11.19
2023-05-25T00:32:26.125Z,11.19
2023-05-25T00:34:54.476Z,11.18
2023-05-25T00:37:21.764Z,11.15
2023-05-25T00:39:48.473Z,11.14
2023-05-25T00:42:15.959Z,11.15
2023-05-25T00:44:43.063Z,11.12
2023-05-25T00:47:11.730Z,11.09
2023-05-25T00:49:38.453Z,11.05
2023-05-25T00:52:05.695Z,11.09
2023-05-25T00:54:33.685Z,11.13
2023-05-25T00:57:06.497Z,11.15
2023-05-25T00:59:41.373Z,11.10
2023-05-25T01:02:11.920Z,11.08
2023-05-25T01:04:45.632Z,11.05
2023-05-25T01:07:18.126Z,11.01
2023-05-25T01:09:46.726Z,10.98
2023-05-25T01:12:16.322Z,10.92
2023-05-25T01:14:43.794Z,10.86
2023-05-25T01:17:11.407Z,10.81
2023-05-25T01:19:41.485Z,10.74
2023-05-25T01:22:32.909Z,10.74
2023-05-25T01:25:05.253Z,10.74
2023-05-25T01:27:40.192Z,10.74
2023-05-25T01:30:12.742Z,10.77
2023-05-25T01:32:42.573Z,10.79
2023-05-25T01:35:11.174Z,10.78
2023-05-25T01:37:47.798Z,10.80
2023-05-25T01:40:15.751Z,10.79
2023-05-25T01:42:42.559Z,10.76
2023-05-25T01:45:11.216Z,10.73
2023-05-25T01:47:47.067Z,10.75
2023-05-25T01:50:31.441Z,10.77
2023-05-25T01:53:11.299Z,10.75
2023-05-25T01:55:52.955Z,10.70
2023-05-25T01:58:20.825Z,10.71
2023-05-25T02:00:51.036Z,10.79
2023-05-25T02:03:18.604Z,10.74
2023-05-25T02:05:46.456Z,10.65
2023-05-25T02:08:14.336Z,10.79
2023-05-25T02:10:41.760Z,10.69
2023-05-25T02:13:08.449Z,10.80
2023-05-25T02:15:35.116Z,10.78
2023-05-25T02:18:01.906Z,10.78
2023-05-25T02:20:28.795Z,10.72
2023-05-25T02:22:55.562Z,10.69
2023-05-25T02:25:22.249Z,10.68
2023-05-25T02:27:49.222Z,10.71
2023-05-25T02:30:15.856Z,10.74
2023-05-25T02:32:42.585Z,10.76
2023-05-25T02:35:11.958Z,10.80
2023-05-25T02:37:39.258Z,10.81
2023-05-25T02:40:06.476Z,10.85
2023-05-25T02:42:33.271Z,10.83
2023-05-25T02:44:59.956Z,10.84
2023-05-25T02:47:26.774Z,10.84
2023-05-25T02:49:53.582Z,10.80
2023-05-25T02:52:21.310Z,10.81
2023-05-25T02:54:48.138Z,10.76
2023-05-25T02:57:14.756Z,10.75
2023-05-25T02:59:41.752Z,10.77
2023-05-25T03:02:08.438Z,10.77
2023-05-25T03:04:37.662Z,10.64
2023-05-25T03:07:04.496Z,10.76
2023-05-25T03:09:31.396Z,10.77
2023-05-25T03:11:58.132Z,10.78
2023-05-25T03:14:25.062Z,10.79
2023-05-25T03:16:53.798Z,10.78
2023-05-25T03:19:21.035Z,10.79
2023-05-25T03:21:47.788Z,10.80
2023-05-25T03:24:14.468Z,10.80
2023-05-25T03:26:43.404Z,10.82
2023-05-25T03:29:12.619Z,10.84
2023-05-25T03:31:39.380Z,10.83
2023-05-25T03:34:07.003Z,10.79
2023-05-25T03:36:34.066Z,10.78
2023-05-25T03:39:01.191Z,10.79
2023-05-25T03:41:27.861Z,10.74
2023-05-25T03:43:54.600Z,10.80
2023-05-25T03:46:23.327Z,10.82
2023-05-25T03:48:50.158Z,10.86
2023-05-25T03:51:16.842Z,10.91
2023-05-25T03:53:43.615Z,10.96
2023-05-25T03:56:10.485Z,10.97
2023-05-25T03:58:37.144Z,10.97
2023-05-25T04:01:05.218Z,11.02
2023-05-25T04:03:33.111Z,11.03
2023-05-25T04:06:00.740Z,11.05
2023-05-25T04:08:28.841Z,11.06
2023-05-25T04:10:56.288Z,11.14
2023-05-25T04:13:23.558Z,11.18
2023-05-25T04:15:51.483Z,11.17
2023-05-25T04:18:19.297Z,11.16
2023-05-25T04:20:46.856Z,11.21
2023-05-25T04:23:13.500Z,11.19
2023-05-25T04:25:42.382Z,11.29
2023-05-25T04:28:09.217Z,11.09
2023-05-25T04:30:36.339Z,11.24
2023-05-25T04:33:03.773Z,11.22
2023-05-25T04:35:31.853Z,11.22
2023-05-25T04:38:00.724Z,11.28
2023-05-25T04:40:28.811Z,11.27
2023-05-25T04:42:56.000Z,11.27
2023-05-25T04:45:24.017Z,11.34
2023-05-25T04:47:51.187Z,11.36
2023-05-25T04:50:18.060Z,11.39
2023-05-25T04:52:44.945Z,11.36
2023-05-25T04:55:11.793Z,11.39
2023-05-25T04:57:38.491Z,11.34
2023-05-25T05:00:06.431Z,11.41
2023-05-25T05:02:34.599Z,11.41
2023-05-25T05:05:01.568Z,11.53
2023-05-25T05:07:29.100Z,11.71
2023-05-25T05:09:55.850Z,12.24
2023-05-25T05:12:22.445Z,12.21
2023-05-25T05:14:50.156Z,12.25
2023-05-25T05:17:17.914Z,13.26
2023-05-25T05:19:45.436Z,12.94
2023-05-25T05:22:13.388Z,12.71
2023-05-25T05:24:40.303Z,13.79
2023-05-25T05:27:09.501Z,14.68
2023-05-25T05:29:37.616Z,14.38
2023-05-25T05:32:04.368Z,13.82
2023-05-25T05:34:31.486Z,13.65
2023-05-25T05:37:00.192Z,13.30
2023-05-25T05:39:27.508Z,12.99
2023-05-25T05:41:55.132Z,12.63
2023-05-25T05:44:24.633Z,12.66
2023-05-25T05:46:53.074Z,13.13
2023-05-25T05:49:19.773Z,14.42
2023-05-25T05:51:46.513Z,15.55
2023-05-25T05:54:13.101Z,15.16
2023-05-25T05:56:40.280Z,15.00
2023-05-25T05:59:07.522Z,14.28
2023-05-25T06:01:34.529Z,13.55
2023-05-25T06:04:01.807Z,12.99
2023-05-25T06:06:29.069Z,12.63
2023-05-25T06:08:55.752Z,12.45
2023-05-25T06:11:22.541Z,12.59
2023-05-25T06:13:49.218Z,13.11
2023-05-25T06:16:15.857Z,13.14
2023-05-25T06:18:42.512Z,12.95
2023-05-25T06:21:10.673Z,12.66
2023-05-25T06:23:37.252Z,12.56
2023-05-25T06:26:05.803Z,12.97
2023-05-25T06:28:32.910Z,14.40
2023-05-25T06:30:59.688Z,14.84
2023-05-25T06:33:26.580Z,14.29
2023-05-25T06:35:58.301Z,13.56
2023-05-25T06:38:25.196Z,13.29
2023-05-25T06:40:51.909Z,13.71
2023-05-25T06:43:18.926Z,15.38
2023-05-25T06:45:46.339Z,15.67
2023-05-25T06:48:13.467Z,15.68
2023-05-25T06:50:40.541Z,14.62
2023-05-25T06:53:07.392Z,14.27
2023-05-25T06:55:34.850Z,14.42
2023-05-25T06:58:01.613Z,14.42
2023-05-25T07:00:31.065Z,14.25
2023-05-25T07:02:57.873Z,14.01
2023-05-25T07:05:24.753Z,13.99
2023-05-25T07:07:51.558Z,13.70
2023-05-25T07:10:18.480Z,13.49
2023-05-25T07:12:45.123Z,13.52
2023-05-25T07:15:13.326Z,13.67
2023-05-25T07:17:40.349Z,13.68
2023-05-25T07:20:07.654Z,13.46
2023-05-25T07:22:34.574Z,13.62
2023-05-25T07:25:01.912Z,13.48
2023-05-25T07:27:30.770Z,13.57
2023-05-25T07:29:57.425Z,13.37
2023-05-25T07:32:24.094Z,13.34
2023-05-25T07:34:50.924Z,13.38
2023-05-25T07:37:19.070Z,13.43
2023-05-25T07:39:45.776Z,13.45
2023-05-25T07:42:12.504Z,13.48
2023-05-25T07:44:39.235Z,13.27
2023-05-25T07:47:07.272Z,13.04
2023-05-25T07:49:36.134Z,13.17
2023-05-25T07:52:06.211Z,13.33
2023-05-25T07:54:32.933Z,13.70
2023-05-25T07:56:59.680Z,13.82
2023-05-25T07:59:26.413Z,13.63
2023-05-25T08:01:53.201Z,13.92
2023-05-25T08:04:19.958Z,14.50
2023-05-25T08:06:46.804Z,14.69
2023-05-25T08:09:13.577Z,15.52
2023-05-25T08:11:40.802Z,15.35
2023-05-25T08:14:07.586Z,14.98
2023-05-25T08:16:34.324Z,15.03
2023-05-25T08:19:01.804Z,14.97
2023-05-25T08:21:28.646Z,14.84
2023-05-25T08:23:56.175Z,14.72
2023-05-25T08:28:52.857Z,15.35
2023-05-25T08:31:19.565Z,14.36
2023-05-25T08:33:46.436Z,14.55
2023-05-25T08:36:13.272Z,14.46
2023-05-25T08:38:42.565Z,14.75
2023-05-25T08:41:14.173Z,14.63
2023-05-25T08:43:42.148Z,14.29
2023-05-25T08:46:12.809Z,15.35
2023-05-25T08:48:42.220Z,15.11
2023-05-25T08:51:12.038Z,14.96
2023-05-25T08:53:41.627Z,15.32
2023-05-25T08:56:20.303Z,15.23
2023-05-25T08:59:00.114Z,14.96
2023-05-25T09:01:31.252Z,14.72
2023-05-25T09:04:00.159Z,14.38
2023-05-25T09:06:28.376Z,14.24
2023-05-25T09:08:55.261Z,14.24
2023-05-25T09:11:35.907Z,14.30
2023-05-25T09:14:08.145Z,14.33
2023-05-25T09:16:37.733Z,14.36
2023-05-25T09:19:04.660Z,14.52
2023-05-25T09:21:31.694Z,14.89
2023-05-25T09:24:01.861Z,15.02
2023-05-25T09:26:28.754Z,15.06
2023-05-25T09:28:55.704Z,15.23
2023-05-25T09:31:24.754Z,15.16
2023-05-25T09:33:55.581Z,15.35
2023-05-25T09:36:23.360Z,15.49
2023-05-25T09:38:53.266Z,15.71
2023-05-25T09:41:21.025Z,15.79
2023-05-25T09:46:15.798Z,16.20
2023-05-25T09:48:43.278Z,16.10
2023-05-25T09:51:11.918Z,16.28
2023-05-25T09:53:38.728Z,16.07
2023-05-25T09:56:05.943Z,16.07
2023-05-25T09:58:33.028Z,16.29
2023-05-25T10:03:27.656Z,16.42
2023-05-25T10:05:55.350Z,16.46
2023-05-25T10:08:25.201Z,16.09
2023-05-25T10:10:53.841Z,15.95
2023-05-25T10:13:25.417Z,16.20
2023-05-25T10:15:54.717Z,16.04
2023-05-25T10:18:26.271Z,16.01
2023-05-25T10:21:03.967Z,16.05
2023-05-25T10:23:38.030Z,15.80
2023-05-25T10:26:06.327Z,15.69
2023-05-25T10:28:37.456Z,15.47
2023-05-25T10:31:06.155Z,15.25
2023-05-25T10:33:33.789Z,15.38
2023-05-25T10:38:39.359Z,15.62
2023-05-25T10:41:12.151Z,15.63
2023-05-25T10:43:40.622Z,15.37
2023-05-25T10:46:08.435Z,15.38
2023-05-25T10:48:48.214Z,15.55
2023-05-25T10:51:19.566Z,15.32
2023-05-25T10:53:48.091Z,15.12
2023-05-25T10:56:14.958Z,15.01
2023-05-25T10:58:46.582Z,14.93
2023-05-25T11:01:16.101Z,15.15
2023-05-25T11:03:50.771Z,15.25
2023-05-25T11:06:21.628Z,15.36
2023-05-25T11:09:03.896Z,15.48
2023-05-25T11:11:42.534Z,15.66
2023-05-25T11:14:32.912Z,15.77
2023-05-25T11:17:12.001Z,15.55
2023-05-25T11:19:55.016Z,15.60
2023-05-25T11:22:37.988Z,15.92
2023-05-25T11:25:42.404Z,16.88
2023-05-25T11:28:12.219Z,17.52
2023-05-25T11:30:44.359Z,17.87
2023-05-25T11:33:12.208Z,18.16
2023-05-25T11:35:39.038Z,18.25
2023-05-25T11:38:07.197Z,17.98
2023-05-25T11:40:34.369Z,17.04
2023-05-25T11:43:02.350Z,17.04
2023-05-25T11:45:30.050Z,17.15
2023-05-25T11:47:57.915Z,17.28
2023-05-25T11:50:25.105Z,17.31
2023-05-25T11:52:52.107Z,17.21
2023-05-25T11:55:19.035Z,16.86
2023-05-25T11:57:46.180Z,16.50
2023-05-25T12:00:13.667Z,16.79
2023-05-25T12:02:42.382Z,16.82
2023-05-25T12:05:11.081Z,17.22
2023-05-25T12:07:44.429Z,17.33
2023-05-25T12:10:14.063Z,17.35
2023-05-25T12:12:49.475Z,17.69
2023-05-25T12:15:25.777Z,17.72
2023-05-25T12:17:53.947Z,17.40
2023-05-25T12:20:21.920Z,17.56
2023-05-25T12:22:48.861Z,17.85
2023-05-25T12:25:20.294Z,18.26
2023-05-25T12:27:47.105Z,18.13
2023-05-25T12:30:13.791Z,18.03
2023-05-25T12:33:03.725Z,17.45
2023-05-25T12:35:45.391Z,17.50
2023-05-25T12:38:20.128Z,17.89
2023-05-25T12:40:47.144Z,18.08
2023-05-25T12:43:15.380Z,18.14
2023-05-25T12:45:43.026Z,18.55
2023-05-25T12:48:13.400Z,18.70
2023-05-25T12:50:56.787Z,18.17
2023-05-25T12:53:25.258Z,18.42
2023-05-25T12:56:01.633Z,18.48
2023-05-25T12:58:28.664Z,18.81
2023-05-25T13:00:55.305Z,18.96
2023-05-25T13:03:23.005Z,19.29
2023-05-25T13:05:51.591Z,19.50
2023-05-25T13:08:18.396Z,19.28
2023-05-25T13:10:48.675Z,19.36
2023-05-25T13:13:15.298Z,19.42
2023-05-25T13:15:42.086Z,19.56
2023-05-25T13:18:08.969Z,19.29
2023-05-25T13:20:36.912Z,19.33
2023-05-25T13:23:03.812Z,19.46
2023-05-25T13:25:30.739Z,19.29
2023-05-25T13:28:01.143Z,18.72
2023-05-25T13:30:28.013Z,19.00
2023-05-25T13:32:54.832Z,19.30
2023-05-25T13:35:40.451Z,19.48
2023-05-25T13:38:07.222Z,19.48
2023-05-25T13:40:35.891Z,19.71
2023-05-25T13:43:05.822Z,19.89
2023-05-25T13:45:32.653Z,20.06
2023-05-25T13:47:59.490Z,20.27
2023-05-25T13:50:26.343Z,19.62
2023-05-25T13:52:53.050Z,18.92
2023-05-25T13:55:19.823Z,18.69
2023-05-25T13:57:46.622Z,18.72
2023-05-25T14:00:14.556Z,18.87
2023-05-25T14:02:44.393Z,19.07
2023-05-25T14:05:11.733Z,19.06
2023-05-25T14:07:41.562Z,19.40
2023-05-25T14:10:09.973Z,19.55
2023-05-25T14:12:36.901Z,19.59
2023-05-25T14:15:04.266Z,19.62
2023-05-25T14:17:30.978Z,19.52
2023-05-25T14:19:59.110Z,19.32
2023-05-25T14:22:28.168Z,19.27
2023-05-25T14:24:54.861Z,19.11
2023-05-25T14:27:21.888Z,19.27
2023-05-25T14:29:49.882Z,19.21
2023-05-25T14:32:17.218Z,19.25
2023-05-25T14:34:44.156Z,19.15
2023-05-25T14:37:11.911Z,18.56
2023-05-25T14:39:38.647Z,18.79
2023-05-25T14:42:06.047Z,19.24
2023-05-25T14:44:32.768Z,19.12
2023-05-25T14:46:59.431Z,18.90
2023-05-25T14:49:27.449Z,18.79
2023-05-25T14:51:54.320Z,19.03
2023-05-25T14:56:48.047Z,19.69
2023-05-25T14:59:14.654Z,19.53
2023-05-25T15:01:44.948Z,19.46
2023-05-25T15:04:13.028Z,19.31
2023-05-25T15:06:42.796Z,19.37
2023-05-25T15:09:09.631Z,19.35
2023-05-25T15:11:36.810Z,19.50
2023-05-25T15:14:03.561Z,19.48
2023-05-25T15:16:30.320Z,19.55
2023-05-25T15:18:57.077Z,19.53
2023-05-25T15:21:23.821Z,19.45
2023-05-25T15:23:51.483Z,19.25
2023-05-25T15:26:18.284Z,19.47
2023-05-25T15:28:44.927Z,19.23
2023-05-25T15:31:13.100Z,18.99
2023-05-25T15:33:53.701Z,19.25
2023-05-25T15:36:23.221Z,19.01
2023-05-25T15:38:49.913Z,19.17
2023-05-25T15:41:17.411Z,19.06
2023-05-25T15:43:58.651Z,18.88
2023-05-25T15:46:26.169Z,18.70
2023-05-25T15:48:53.480Z,18.60
2023-05-25T15:51:20.595Z,18.64
2023-05-25T15:53:47.747Z,18.61
2023-05-25T15:56:14.335Z,18.57
2023-05-25T15:58:41.689Z,18.52
2023-05-25T16:01:08.413Z,18.63
2023-05-25T16:03:35.251Z,18.76
2023-05-25T16:06:02.489Z,18.61
2023-05-25T16:08:29.244Z,18.40
2023-05-25T16:10:56.082Z,18.30
2023-05-25T16:13:22.869Z,18.48
2023-05-25T16:15:49.640Z,18.37
2023-05-25T16:18:16.744Z,18.38
2023-05-25T16:20:44.181Z,18.43
2023-05-25T16:23:14.910Z,18.28
2023-05-25T16:25:42.174Z,18.22
2023-05-25T16:28:08.910Z,18.08
2023-05-25T16:30:35.659Z,18.15
2023-05-25T16:33:02.401Z,17.97
2023-05-25T16:35:29.123Z,18.02
2023-05-25T16:37:56.256Z,17.98
2023-05-25T16:40:23.108Z,18.17
2023-05-25T16:42:49.777Z,18.12
2023-05-25T16:45:16.589Z,18.24
2023-05-25T16:47:43.374Z,18.00
2023-05-25T16:50:10.495Z,17.71
2023-05-25T16:52:37.245Z,17.66
2023-05-25T16:55:04.300Z,17.74
2023-05-25T16:57:31.128Z,17.67
2023-05-25T16:59:57.912Z,17.64
2023-05-25T17:02:24.636Z,17.45
2023-05-25T17:04:51.398Z,17.49
2023-05-25T17:07:18.440Z,17.48
2023-05-25T17:09:45.107Z,17.35
2023-05-25T17:12:12.812Z,17.22
2023-05-25T17:14:39.684Z,17.18
2023-05-25T17:17:06.455Z,17.10
2023-05-25T17:19:33.146Z,17.13
2023-05-25T17:22:01.807Z,17.18
2023-05-25T17:24:28.601Z,17.07
2023-05-25T17:26:56.440Z,17.12
2023-05-25T17:29:23.404Z,16.98
2023-05-25T17:31:50.285Z,16.82
2023-05-25T17:34:17.183Z,16.68
2023-05-25T17:36:43.894Z,16.55
2023-05-25T17:39:10.815Z,16.47
2023-05-25T17:41:37.612Z,16.48
2023-05-25T17:44:04.330Z,16.32
2023-05-25T17:46:31.434Z,16.30
2023-05-25T17:48:58.227Z,16.21
2023-05-25T17:51:24.992Z,16.09
2023-05-25T17:53:52.109Z,16.03
2023-05-25T17:56:18.758Z,16.03
2023-05-25T17:58:47.628Z,15.67
2023-05-25T18:01:15.832Z,15.68
2023-05-25T18:03:42.832Z,15.33
2023-05-25T18:06:10.756Z,15.10
2023-05-25T18:08:37.531Z,14.92
2023-05-25T18:11:07.624Z,14.71
2023-05-25T18:13:35.533Z,14.45
2023-05-25T18:16:02.167Z,14.21
2023-05-25T18:18:28.851Z,14.03
2023-05-25T18:20:56.562Z,13.90
2023-05-25T18:23:23.407Z,13.72
2023-05-25T18:25:52.608Z,13.68
2023-05-25T18:28:19.337Z,13.52
2023-05-25T18:30:47.089Z,13.39
2023-05-25T18:33:13.867Z,13.27
2023-05-25T18:35:40.875Z,13.08
2023-05-25T18:38:07.634Z,12.98
2023-05-25T18:40:34.480Z,12.88
2023-05-25T18:43:04.740Z,12.74
2023-05-25T18:45:31.635Z,12.54
2023-05-25T18:48:07.518Z,12.44
2023-05-25T18:50:39.504Z,12.29
2023-05-25T18:53:07.925Z,12.11
2023-05-25T18:55:34.972Z,11.90
2023-05-25T18:58:02.177Z,11.68
2023-05-25T19:00:29.456Z,11.47
2023-05-25T19:02:57.295Z,11.21
2023-05-25T19:05:24.771Z,10.91
2023-05-25T19:07:59.270Z,10.71
2023-05-25T19:10:27.561Z,10.48
2023-05-25T19:12:54.719Z,10.32
2023-05-25T19:15:21.640Z,10.14
2023-05-25T19:17:48.510Z,9.99
2023-05-25T19:20:15.610Z,9.67
2023-05-25T19:22:42.593Z,9.67
2023-05-25T19:25:11.206Z,9.79
2023-05-25T19:27:37.923Z,9.51
2023-05-25T19:30:05.146Z,9.41
2023-05-25T19:32:32.058Z,9.21
2023-05-25T19:34:58.874Z,8.96
2023-05-25T19:37:26.519Z,8.84
2023-05-25T19:39:53.430Z,8.85
2023-05-25T19:42:44.420Z,8.89
2023-05-25T19:45:13.375Z,8.68
2023-05-25T19:47:40.729Z,8.51
2023-05-25T19:50:08.506Z,8.32
2023-05-25T19:52:35.313Z,8.22
2023-05-25T19:55:03.158Z,7.91
2023-05-25T19:57:29.852Z,8.06
2023-05-25T19:59:57.801Z,8.02
2023-05-25T20:02:24.690Z,7.86
2023-05-25T20:04:51.505Z,7.81
2023-05-25T20:07:18.569Z,7.72
2023-05-25T20:09:45.946Z,7.86
2023-05-25T20:12:13.724Z,7.80
2023-05-25T20:14:42.863Z,7.72
2023-05-25T20:17:12.596Z,7.60
2023-05-25T20:19:39.364Z,7.44
2023-05-25T20:22:08.226Z,7.55
2023-05-25T20:24:35.011Z,7.47
2023-05-25T20:27:05.067Z,7.35
2023-05-25T20:29:33.906Z,7.39
2023-05-25T20:32:00.846Z,7.20
2023-05-25T20:34:27.541Z,7.10
2023-05-25T20:36:54.282Z,6.92
2023-05-25T20:39:21.136Z,6.91
2023-05-25T20:41:47.925Z,6.75
2023-05-25T20:44:14.783Z,6.75
2023-05-25T20:46:44.974Z,6.80
2023-05-25T20:49:12.006Z,6.71
2023-05-25T20:51:38.679Z,6.59
2023-05-25T20:54:05.647Z,6.57
2023-05-25T20:56:32.617Z,6.28
2023-05-25T20:58:59.479Z,6.39
2023-05-25T21:01:26.322Z,6.40
2023-05-25T21:03:53.719Z,6.36
2023-05-25T21:06:21.080Z,6.28
2023-05-25T21:08:47.881Z,6.14
2023-05-25T21:11:14.564Z,6.08
2023-05-25T21:13:42.213Z,6.00
2023-05-25T21:16:08.993Z,6.05
2023-05-25T21:18:35.751Z,6.04
2023-05-25T21:21:02.501Z,6.09
2023-05-25T21:23:29.302Z,5.93
2023-05-25T21:25:56.134Z,6.05
2023-05-25T21:28:23.700Z,6.13
2023-05-25T21:30:50.718Z,6.18
2023-05-25T21:33:17.358Z,6.23
2023-05-25T21:35:44.454Z,6.06
2023-05-25T21:38:12.286Z,5.87
2023-05-25T21:40:38.909Z,5.73
2023-05-25T21:43:05.552Z,5.58
2023-05-25T21:45:32.196Z,5.49
2023-05-25T21:47:58.879Z,5.37
2023-05-25T21:50:25.881Z,5.24
2023-05-25T21:52:52.658Z,5.17
2023-05-25T21:55:19.433Z,5.35
2023-05-25T21:57:46.050Z,5.49
2023-05-25T22:00:14.505Z,5.55
2023-05-25T22:02:41.833Z,5.41
2023-05-25T22:05:08.661Z,5.34
2023-05-25T22:07:35.285Z,5.26
2023-05-25T22:10:01.987Z,5.23
2023-05-25T22:12:28.661Z,5.14
2023-05-25T22:14:55.274Z,5.09
2023-05-25T22:17:22.031Z,5.01
2023-05-25T22:19:58.950Z,4.97
2023-05-25T22:22:34.056Z,4.88
2023-05-25T22:25:00.681Z,4.77
2023-05-25T22:27:27.319Z,4.83
2023-05-25T22:29:53.941Z,4.78
2023-05-25T22:32:20.754Z,4.64
2023-05-25T22:34:47.405Z,4.52
2023-05-25T22:37:14.136Z,4.44
2023-05-25T22:39:40.946Z,4.35
2023-05-25T22:42:07.740Z,4.27
2023-05-25T22:44:38.020Z,4.17
2023-05-25T22:47:06.416Z,4.17
2023-05-25T22:49:44.249Z,4.16
2023-05-25T22:52:12.497Z,4.50
2023-05-25T22:54:41.639Z,4.53
2023-05-25T22:57:09.614Z,4.58
2023-05-25T22:59:36.356Z,4.54
2023-05-25T23:02:03.149Z,4.44
2023-05-25T23:04:29.792Z,4.50
2023-05-25T23:06:56.445Z,4.46
2023-05-25T23:09:23.088Z,4.34
2023-05-25T23:11:49.782Z,4.36
2023-05-25T23:14:16.451Z,4.44
2023-05-25T23:16:43.209Z,4.43
2023-05-25T23:19:12.391Z,4.40
2023-05-25T23:21:39.076Z,4.34
2023-05-25T23:24:06.194Z,4.36
2023-05-25T23:26:32.848Z,4.41
2023-05-25T23:28:59.629Z,4.43
2023-05-25T23:31:26.332Z,4.42
2023-05-25T23:33:53.217Z,4.62
2023-05-25T23:36:20.843Z,4.77
2023-05-25T23:38:47.500Z,5.02
2023-05-25T23:41:15.933Z,5.06
2023-05-25T23:43:42.546Z,5.11
2023-05-25T23:46:09.428Z,5.00
2023-05-25T23:48:36.136Z,4.98
2023-05-25T23:51:02.910Z,4.96
2023-05-25T23:53:29.550Z,5.08
2023-05-25T23:55:56.147Z,5.18
2023-05-25T23:58:22.834Z,5.11
